Time;durP1;ratioP1;P1;durP2;ratioP2;P2;SDS_P1;SDS_P2;PMS_P1;PMS_P2;Temp;Humidity;BMP_temperature;BMP_pressure;BME280_temperature;BME280_humidity;BME280_pressure;Samples;Min_cycle;Max_cycle;Signal;HPM_P1;HPM_P2
2022/07/04 00:01:57;;;;;;;;;;;15.60;99.90;;;;;;5067663;28;19924;-53
2022/07/04 00:04:22;;;;;;;;;;;15.60;99.90;;;;;;5058811;28;20007;-48
2022/07/04 00:06:48;;;;;;;;;;;15.60;99.90;;;;;;5049622;28;19921;-48
2022/07/04 00:09:13;;;;;;;;;;;15.60;99.90;;;;;;5050284;28;20027;-51
2022/07/04 00:11:39;;;;;;;;;;;15.60;99.90;;;;;;5063339;22;19955;-46
2022/07/04 00:14:04;;;;;;;;;;;15.60;99.90;;;;;;5050278;28;19923;-47
2022/07/04 00:16:30;;;;;;;;;;;15.50;99.90;;;;;;5050486;28;20325;-47
2022/07/04 00:18:55;;;;;;;;;;;15.50;99.90;;;;;;5048693;28;19924;-48
2022/07/04 00:21:21;;;;;;;;;;;15.50;99.90;;;;;;5049239;28;19963;-46
2022/07/04 00:23:46;;;;;;;;;;;15.50;99.90;;;;;;5048804;28;20468;-47
2022/07/04 00:26:12;;;;;;;;;;;15.50;99.90;;;;;;5049654;28;19920;-47
2022/07/04 00:28:37;;;;;;;;;;;15.40;99.90;;;;;;5050100;28;19985;-47
2022/07/04 00:31:02;;;;;;;;;;;15.40;99.90;;;;;;5049392;28;20382;-47
2022/07/04 00:33:28;;;;;;;;;;;15.40;99.90;;;;;;5048751;28;19967;-47
2022/07/04 00:35:53;;;;;;;;;;;15.40;99.90;;;;;;5049767;28;20389;-46
2022/07/04 00:38:19;;;;;;;;;;;15.40;99.90;;;;;;5049749;28;19917;-47
2022/07/04 00:40:44;;;;;;;;;;;15.40;99.90;;;;;;5049828;28;19927;-47
2022/07/04 00:43:10;;;;;;;;;;;15.40;99.90;;;;;;5047479;28;19917;-50
2022/07/04 00:45:35;;;;;;;;;;;15.30;99.90;;;;;;5049797;28;20136;-48
2022/07/04 00:48:01;;;;;;;;;;;15.30;99.90;;;;;;5049736;28;19920;-47
2022/07/04 00:50:27;;;;;;;;;;;15.30;99.90;;;;;;5053238;28;20353;-47
2022/07/04 00:52:53;;;;;;;;;;;15.30;99.90;;;;;;5051701;28;19916;-49
2022/07/04 00:55:19;;;;;;;;;;;15.20;99.90;;;;;;5054489;28;19920;-47
2022/07/04 00:57:45;;;;;;;;;;;15.20;99.90;;;;;;5057798;28;19974;-46
2022/07/04 01:00:10;;;;;;;;;;;15.10;99.90;;;;;;5059299;28;19916;-46
2022/07/04 01:02:36;;;;;;;;;;;15.10;99.90;;;;;;5065905;28;20354;-49
2022/07/04 01:05:01;;;;;;;;;;;15.10;99.90;;;;;;5054019;28;20250;-47
2022/07/04 01:07:27;;;;;;;;;;;15.10;99.90;;;;;;5052336;28;19971;-48
2022/07/04 01:09:53;;;;;;;;;;;15.10;99.90;;;;;;5053320;28;20408;-47
2022/07/04 01:12:28;;;;;;;;;;;15.10;99.90;;;;;;5052932;28;20000;-47
2022/07/04 01:14:54;;;;;;;;;;;15.00;99.90;;;;;;5052327;28;19923;-47
2022/07/04 01:17:19;;;;;;;;;;;15.00;99.90;;;;;;5053190;28;19924;-48
2022/07/04 01:19:45;;;;;;;;;;;14.80;99.90;;;;;;5052783;28;19940;-48
2022/07/04 01:22:11;;;;;;;;;;;14.80;99.90;;;;;;5052322;28;19916;-47
2022/07/04 01:24:37;;;;;;;;;;;14.70;99.90;;;;;;5052226;28;19921;-47
2022/07/04 01:27:02;;;;;;;;;;;14.60;99.90;;;;;;5052603;28;20058;-50
2022/07/04 01:29:28;;;;;;;;;;;14.60;99.90;;;;;;5052600;28;19924;-47
2022/07/04 01:31:53;;;;;;;;;;;14.60;99.90;;;;;;5052503;28;20542;-47
2022/07/04 01:34:19;;;;;;;;;;;14.50;99.90;;;;;;5050422;28;19963;-48
2022/07/04 01:36:45;;;;;;;;;;;14.40;99.90;;;;;;5052378;28;19974;-47
2022/07/04 01:39:10;;;;;;;;;;;14.30;99.90;;;;;;5052893;28;19924;-47
2022/07/04 01:41:36;;;;;;;;;;;14.20;99.90;;;;;;5051816;28;19928;-48
2022/07/04 01:44:01;;;;;;;;;;;14.10;99.90;;;;;;5051883;28;19917;-47
2022/07/04 01:46:27;;;;;;;;;;;14.10;99.90;;;;;;5051845;28;20337;-46
2022/07/04 01:48:52;;;;;;;;;;;14.00;99.90;;;;;;5052292;28;19923;-47
2022/07/04 01:51:18;;;;;;;;;;;14.00;99.90;;;;;;5051571;28;19916;-49
2022/07/04 01:53:43;;;;;;;;;;;14.00;99.90;;;;;;5051858;28;19959;-48
2022/07/04 01:56:09;;;;;;;;;;;14.00;99.90;;;;;;5051731;28;20405;-46
2022/07/04 01:58:34;;;;;;;;;;;14.10;99.90;;;;;;5051052;28;19920;-47
2022/07/04 02:03:45;;;;;;;;;;;14.00;99.90;;;;;;5049863;28;20286;-48
2022/07/04 02:06:10;;;;;;;;;;;14.00;99.90;;;;;;5052061;28;20007;-50
2022/07/04 02:11:20;;;;;;;;;;;13.90;99.90;;;;;;5051555;28;19951;-50
2022/07/04 02:13:46;;;;;;;;;;;13.90;99.90;;;;;;5051609;28;19959;-46
2022/07/04 02:16:12;;;;;;;;;;;13.90;99.90;;;;;;5050933;28;20374;-47
2022/07/04 02:18:37;;;;;;;;;;;13.80;99.90;;;;;;5049653;28;19927;-46
2022/07/04 02:21:03;;;;;;;;;;;13.80;99.90;;;;;;5050943;28;20396;-49
2022/07/04 02:23:29;;;;;;;;;;;13.70;99.90;;;;;;5051063;28;19964;-48
2022/07/04 02:25:54;;;;;;;;;;;13.60;99.90;;;;;;5051700;28;19921;-47
2022/07/04 02:28:20;;;;;;;;;;;13.60;99.90;;;;;;5051653;28;19917;-46
2022/07/04 02:30:45;;;;;;;;;;;13.60;99.90;;;;;;5051982;28;19916;-47
2022/07/04 02:33:11;;;;;;;;;;;13.60;99.90;;;;;;5050286;28;19920;-46
2022/07/04 02:35:36;;;;;;;;;;;13.60;99.90;;;;;;5052056;28;19921;-47
2022/07/04 02:38:02;;;;;;;;;;;13.60;99.90;;;;;;5051573;28;20389;-47
2022/07/04 02:40:27;;;;;;;;;;;13.60;99.90;;;;;;5051134;28;19917;-46
2022/07/04 02:42:53;;;;;;;;;;;13.40;99.90;;;;;;5050742;28;19943;-46
2022/07/04 02:45:18;;;;;;;;;;;13.40;99.90;;;;;;5051319;28;20297;-46
2022/07/04 02:47:44;;;;;;;;;;;13.30;99.90;;;;;;5050983;28;19921;-46
2022/07/04 02:50:09;;;;;;;;;;;13.30;99.90;;;;;;5051195;28;19931;-48
2022/07/04 02:52:35;;;;;;;;;;;13.30;99.90;;;;;;5050922;28;19921;-47
2022/07/04 02:55:01;;;;;;;;;;;13.30;99.90;;;;;;5050707;28;19916;-48
2022/07/04 02:57:27;;;;;;;;;;;13.20;99.90;;;;;;5050615;28;19925;-46
2022/07/04 02:59:52;;;;;;;;;;;13.20;99.90;;;;;;5050910;28;20381;-47
2022/07/04 03:02:18;;;;;;;;;;;13.10;99.90;;;;;;5049835;28;19921;-46
2022/07/04 03:04:43;;;;;;;;;;;13.10;99.90;;;;;;5050785;28;19916;-47
2022/07/04 03:07:09;;;;;;;;;;;13.20;99.90;;;;;;5052087;28;19923;-49
2022/07/04 03:09:35;;;;;;;;;;;13.10;99.90;;;;;;5067776;28;20293;-48
2022/07/04 03:12:00;;;;;;;;;;;13.10;99.90;;;;;;5053994;28;19948;-48
2022/07/04 03:14:26;;;;;;;;;;;13.10;99.90;;;;;;5058888;28;20445;-46
2022/07/04 03:16:51;;;;;;;;;;;13.10;99.90;;;;;;5060806;28;20317;-49
2022/07/04 03:19:17;;;;;;;;;;;13.10;99.90;;;;;;5061497;28;19917;-46
2022/07/04 03:21:43;;;;;;;;;;;13.00;99.90;;;;;;5048736;28;20444;-47
2022/07/04 03:24:09;;;;;;;;;;;12.90;99.90;;;;;;5050096;28;20302;-47
2022/07/04 03:26:34;;;;;;;;;;;12.90;99.90;;;;;;5050195;28;19917;-46
2022/07/04 03:29:00;;;;;;;;;;;12.90;99.90;;;;;;5051138;28;19963;-47
2022/07/04 03:31:26;;;;;;;;;;;12.90;99.90;;;;;;5049490;28;19917;-48
2022/07/04 03:33:52;;;;;;;;;;;12.90;99.90;;;;;;5049793;28;19916;-47
2022/07/04 03:36:18;;;;;;;;;;;12.90;99.90;;;;;;5049884;28;19966;-48
2022/07/04 03:38:44;;;;;;;;;;;13.00;99.90;;;;;;5050515;28;19916;-46
2022/07/04 03:41:10;;;;;;;;;;;13.00;99.90;;;;;;5049996;28;19977;-47
2022/07/04 03:43:35;;;;;;;;;;;13.00;99.90;;;;;;5049847;28;19924;-46
2022/07/04 03:46:01;;;;;;;;;;;13.10;99.90;;;;;;5049583;28;20019;-46
2022/07/04 03:48:26;;;;;;;;;;;13.10;99.90;;;;;;5048950;28;19966;-47
2022/07/04 03:50:52;;;;;;;;;;;13.10;99.90;;;;;;5048838;28;19970;-47
2022/07/04 03:53:19;;;;;;;;;;;13.20;99.90;;;;;;5049288;28;19998;-47
2022/07/04 03:55:45;;;;;;;;;;;13.20;99.90;;;;;;5050407;28;19916;-47
2022/07/04 03:58:10;;;;;;;;;;;13.20;99.90;;;;;;5049621;28;19966;-46
2022/07/04 04:00:36;;;;;;;;;;;13.30;99.90;;;;;;5049706;28;19960;-50
2022/07/04 04:03:01;;;;;;;;;;;13.30;99.90;;;;;;5049034;28;19925;-48
2022/07/04 04:05:27;;;;;;;;;;;13.30;99.90;;;;;;5048981;28;19916;-47
2022/07/04 04:07:57;;;;;;;;;;;13.30;99.90;;;;;;5048768;28;19964;-47
2022/07/04 04:10:23;;;;;;;;;;;13.40;99.90;;;;;;5049928;28;20377;-47
2022/07/04 04:12:48;;;;;;;;;;;13.40;99.90;;;;;;5048795;28;19935;-47
2022/07/04 04:15:14;;;;;;;;;;;13.40;99.90;;;;;;5049052;28;19921;-47
2022/07/04 04:17:39;;;;;;;;;;;13.50;99.90;;;;;;5049417;28;19929;-46
2022/07/04 04:20:05;;;;;;;;;;;13.50;99.90;;;;;;5049660;28;20377;-47
2022/07/04 04:22:31;;;;;;;;;;;13.50;99.90;;;;;;5060556;28;20432;-47
2022/07/04 04:24:56;;;;;;;;;;;13.50;99.90;;;;;;5057126;28;19963;-47
2022/07/04 04:27:22;;;;;;;;;;;13.50;99.90;;;;;;5067232;28;19916;-47
2022/07/04 04:29:47;;;;;;;;;;;13.50;99.90;;;;;;5057860;28;19928;-47
2022/07/04 04:32:13;;;;;;;;;;;13.60;99.90;;;;;;5057530;28;20320;-47
2022/07/04 04:34:38;;;;;;;;;;;13.60;99.90;;;;;;5056797;28;20340;-49
2022/07/04 04:37:04;;;;;;;;;;;13.60;99.90;;;;;;5058045;28;19979;-49
2022/07/04 04:39:29;;;;;;;;;;;13.60;99.90;;;;;;5053511;28;19971;-49
2022/07/04 04:41:55;;;;;;;;;;;13.60;99.90;;;;;;5053280;28;19938;-47
2022/07/04 04:44:20;;;;;;;;;;;13.60;99.90;;;;;;5052873;28;19916;-46
2022/07/04 04:46:46;;;;;;;;;;;13.70;99.90;;;;;;5054089;28;19927;-47
2022/07/04 04:49:11;;;;;;;;;;;13.70;99.90;;;;;;5053695;28;19962;-48
2022/07/04 04:51:38;;;;;;;;;;;13.80;99.90;;;;;;5064529;28;20440;-47
2022/07/04 04:54:04;;;;;;;;;;;13.80;99.90;;;;;;5061131;28;19978;-47
2022/07/04 04:56:29;;;;;;;;;;;13.80;99.90;;;;;;5058408;28;20382;-47
2022/07/04 04:58:55;;;;;;;;;;;13.90;99.90;;;;;;5057299;28;19923;-49
2022/07/04 05:01:20;;;;;;;;;;;13.90;99.90;;;;;;5053124;28;20401;-47
2022/07/04 05:03:45;;;;;;;;;;;13.90;99.90;;;;;;5052678;28;19986;-47
2022/07/04 05:06:11;;;;;;;;;;;14.00;99.90;;;;;;5052958;28;19939;-46
2022/07/04 05:08:37;;;;;;;;;;;14.00;99.90;;;;;;5053148;28;20385;-48
2022/07/04 05:11:02;;;;;;;;;;;14.10;99.90;;;;;;5052645;28;20109;-47
2022/07/04 05:13:27;;;;;;;;;;;14.10;99.90;;;;;;5052055;28;20016;-46
2022/07/04 05:15:53;;;;;;;;;;;14.10;99.90;;;;;;5052849;28;19916;-47
2022/07/04 05:18:19;;;;;;;;;;;14.20;99.90;;;;;;5052645;28;19920;-47
2022/07/04 05:20:44;;;;;;;;;;;14.20;99.90;;;;;;5053747;28;19963;-47
2022/07/04 05:23:10;;;;;;;;;;;14.30;99.90;;;;;;5053121;28;19924;-47
2022/07/04 05:25:35;;;;;;;;;;;14.40;99.90;;;;;;5053749;28;19982;-47
2022/07/04 05:28:01;;;;;;;;;;;14.50;99.90;;;;;;5055543;28;19917;-50
2022/07/04 05:30:26;;;;;;;;;;;14.50;99.90;;;;;;5053426;28;19917;-49
2022/07/04 05:32:51;;;;;;;;;;;14.60;99.90;;;;;;5060100;28;19917;-47
2022/07/04 05:35:17;;;;;;;;;;;14.70;99.90;;;;;;5059092;28;20111;-49
2022/07/04 05:37:43;;;;;;;;;;;14.70;99.90;;;;;;5056355;28;20398;-49
2022/07/04 05:40:09;;;;;;;;;;;14.70;99.90;;;;;;5052524;28;19917;-48
2022/07/04 05:42:34;;;;;;;;;;;14.80;99.90;;;;;;5051608;28;20058;-51
2022/07/04 05:45:00;;;;;;;;;;;14.90;99.90;;;;;;5052309;28;20007;-51
2022/07/04 05:47:26;;;;;;;;;;;15.00;99.90;;;;;;5050524;28;20124;-49
2022/07/04 05:49:52;;;;;;;;;;;15.00;99.90;;;;;;5052635;28;19925;-50
2022/07/04 05:52:17;;;;;;;;;;;15.10;99.90;;;;;;5064516;28;19921;-53
2022/07/04 05:54:43;;;;;;;;;;;15.10;99.90;;;;;;5069846;28;19928;-51
2022/07/04 05:57:08;;;;;;;;;;;15.20;99.90;;;;;;5071929;28;20324;-50
2022/07/04 05:59:34;;;;;;;;;;;15.30;99.90;;;;;;5059887;28;19923;-51
2022/07/04 06:02:00;;;;;;;;;;;15.30;99.90;;;;;;5052190;28;20397;-51
2022/07/04 06:04:25;;;;;;;;;;;15.40;99.90;;;;;;5052697;28;19916;-53
2022/07/04 06:06:51;;;;;;;;;;;15.40;99.90;;;;;;5052500;28;19916;-52
2022/07/04 06:09:16;;;;;;;;;;;15.40;99.90;;;;;;5061453;28;20304;-52
2022/07/04 06:11:42;;;;;;;;;;;15.50;99.90;;;;;;5071746;28;20441;-52
2022/07/04 06:14:07;;;;;;;;;;;15.60;99.90;;;;;;5066992;28;19920;-47
2022/07/04 06:16:33;;;;;;;;;;;15.60;99.90;;;;;;5063580;28;19921;-49
2022/07/04 06:18:58;;;;;;;;;;;15.60;99.90;;;;;;5064142;28;19917;-50
2022/07/04 06:21:24;;;;;;;;;;;15.70;99.90;;;;;;5051651;28;19924;-51
2022/07/04 06:23:49;;;;;;;;;;;15.80;99.90;;;;;;5058495;28;20003;-50
2022/07/04 06:26:15;;;;;;;;;;;15.90;99.90;;;;;;5050648;28;19916;-52
2022/07/04 06:28:40;;;;;;;;;;;16.00;99.90;;;;;;5056028;28;19924;-49
2022/07/04 06:31:06;;;;;;;;;;;16.10;99.90;;;;;;5051126;28;20325;-52
2022/07/04 06:33:31;;;;;;;;;;;16.10;99.90;;;;;;5050877;28;20401;-49
2022/07/04 06:35:58;;;;;;;;;;;16.10;99.90;;;;;;5051279;28;19917;-50
2022/07/04 06:38:28;;;;;;;;;;;16.20;99.90;;;;;;5056359;28;19927;-50
2022/07/04 06:40:55;;;;;;;;;;;16.30;99.90;;;;;;5051281;28;20062;-51
2022/07/04 06:43:20;;;;;;;;;;;16.30;99.90;;;;;;5050245;28;20290;-51
2022/07/04 06:45:46;;;;;;;;;;;16.40;99.90;;;;;;5051143;28;19920;-51
2022/07/04 06:48:12;;;;;;;;;;;16.50;99.90;;;;;;5049077;28;19916;-51
2022/07/04 06:50:37;;;;;;;;;;;16.60;99.90;;;;;;5051377;28;19925;-50
2022/07/04 06:53:04;;;;;;;;;;;16.60;99.90;;;;;;5049735;28;19921;-52
2022/07/04 06:55:29;;;;;;;;;;;16.70;99.90;;;;;;5051952;28;19917;-52
2022/07/04 06:57:55;;;;;;;;;;;16.80;99.90;;;;;;5049242;28;19990;-52
2022/07/04 07:00:20;;;;;;;;;;;16.90;99.90;;;;;;5064441;28;19916;-52
2022/07/04 07:02:46;;;;;;;;;;;16.90;99.90;;;;;;5054318;28;19924;-48
2022/07/04 07:05:11;;;;;;;;;;;17.00;99.90;;;;;;5058093;28;19943;-51
2022/07/04 07:07:37;;;;;;;;;;;17.00;99.90;;;;;;5046903;28;19940;-51
2022/07/04 07:10:03;;;;;;;;;;;17.10;99.90;;;;;;5058244;28;19923;-54
2022/07/04 07:12:29;;;;;;;;;;;17.20;99.90;;;;;;5054516;28;19921;-51
2022/07/04 07:14:54;;;;;;;;;;;17.30;99.90;;;;;;5053489;28;20278;-52
2022/07/04 07:17:20;;;;;;;;;;;17.40;99.90;;;;;;5055509;28;20440;-53
2022/07/04 07:19:46;;;;;;;;;;;17.40;99.90;;;;;;5031427;28;19925;-52
2022/07/04 07:22:12;;;;;;;;;;;17.40;99.90;;;;;;5038263;28;19978;-50
2022/07/04 07:24:38;;;;;;;;;;;17.50;99.90;;;;;;5047223;28;20367;-52
2022/07/04 07:27:04;;;;;;;;;;;17.60;99.90;;;;;;5043316;28;19962;-53
2022/07/04 07:29:30;;;;;;;;;;;17.60;99.90;;;;;;5047223;28;20161;-50
2022/07/04 07:31:55;;;;;;;;;;;17.70;99.90;;;;;;5041269;28;19925;-48
2022/07/04 07:34:21;;;;;;;;;;;17.70;99.90;;;;;;5037882;28;19930;-54
2022/07/04 07:36:47;;;;;;;;;;;17.70;99.90;;;;;;5040344;28;19929;-51
2022/07/04 07:39:12;;;;;;;;;;;17.80;99.90;;;;;;5043987;28;20477;-51
2022/07/04 07:41:38;;;;;;;;;;;17.80;99.90;;;;;;5036114;28;19917;-50
2022/07/04 07:44:03;;;;;;;;;;;17.90;99.90;;;;;;5035989;28;19917;-50
2022/07/04 07:46:29;;;;;;;;;;;18.00;99.90;;;;;;5044193;28;19921;-52
2022/07/04 07:48:54;;;;;;;;;;;18.10;99.90;;;;;;5042923;28;20336;-50
2022/07/04 07:51:20;;;;;;;;;;;18.10;99.90;;;;;;5048296;28;19921;-51
2022/07/04 07:53:45;;;;;;;;;;;18.20;99.90;;;;;;5036200;28;20365;-49
2022/07/04 07:56:11;;;;;;;;;;;18.30;99.90;;;;;;5040007;28;19923;-53
2022/07/04 07:58:36;;;;;;;;;;;18.30;99.90;;;;;;5036555;28;19924;-50
2022/07/04 08:01:02;;;;;;;;;;;18.40;99.90;;;;;;5042133;28;19962;-50
2022/07/04 08:06:12;;;;;;;;;;;18.30;99.90;;;;;;5042951;28;19920;-50
2022/07/04 08:08:38;;;;;;;;;;;18.40;99.90;;;;;;5044198;28;19925;-52
2022/07/04 08:12:43;;;;;;;7.97;3.55;;;18.40;99.90;;;;;;5105129;27;20342;-55
2022/07/04 08:15:09;;;;;;;6.70;2.80;;;18.50;99.90;;;;;;5099216;27;20044;-55
2022/07/04 08:17:35;;;;;;;8.68;4.10;;;18.60;99.90;;;;;;5112674;28;20121;-51
2022/07/04 08:20:01;;;;;;;9.93;3.80;;;18.60;99.90;;;;;;5106670;27;20135;-52
2022/07/04 08:22:27;;;;;;;7.88;3.42;;;18.60;99.90;;;;;;5082995;28;20033;-54
2022/07/04 08:24:52;;;;;;;9.38;4.93;;;18.50;99.90;;;;;;5092100;28;20038;-52
2022/07/04 08:27:18;;;;;;;12.73;3.47;;;18.50;99.90;;;;;;5089485;28;20305;-55
2022/07/04 08:29:43;;;;;;;10.15;3.40;;;18.50;99.90;;;;;;5090754;28;20090;-50
2022/07/04 08:32:09;;;;;;;9.32;3.70;;;18.40;99.90;;;;;;5089391;28;20039;-52
2022/07/04 08:34:35;;;;;;;8.63;4.50;;;18.40;99.90;;;;;;5091298;28;20032;-52
2022/07/04 08:37:01;;;;;;;8.73;3.65;;;18.50;99.90;;;;;;5088043;28;20142;-51
2022/07/04 08:39:27;;;;;;;5.93;2.97;;;18.60;99.90;;;;;;5088858;28;20122;-55
2022/07/04 08:41:59;;;;;;;8.95;3.60;;;18.60;99.90;;;;;;5091195;28;20501;-53
2022/07/04 08:44:27;;;;;;;16.98;5.10;;;18.60;99.90;;;;;;5088634;28;20131;-53
2022/07/04 08:46:54;;;;;;;11.05;3.00;;;18.70;99.90;;;;;;5087502;28;20036;-54
2022/07/04 08:49:26;;;;;;;13.15;4.60;;;18.70;99.90;;;;;;5090045;28;20039;-49
2022/07/04 08:52:12;;;;;;;9.25;2.70;;;18.70;99.90;;;;;;5089853;28;20036;-53
2022/07/04 09:00:08;;;;;;;7.00;3.47;;;18.60;99.90;;;;;;5089711;28;20465;-51
2022/07/04 09:02:37;;;;;;;5.10;3.40;;;18.60;99.90;;;;;;5088501;28;20078;-53
2022/07/04 09:05:05;;;;;;;5.63;3.13;;;18.60;99.90;;;;;;5086220;28;20486;-52
2022/07/04 09:07:31;;;;;;;8.73;3.53;;;18.50;99.90;;;;;;5087595;28;20044;-52
2022/07/04 09:09:58;;;;;;;7.82;3.28;;;18.50;99.90;;;;;;5089429;28;20689;-52
2022/07/04 09:12:23;;;;;;;6.28;2.80;;;18.50;99.90;;;;;;5090653;28;20033;-52
2022/07/04 09:14:51;;;;;;;8.95;3.13;;;18.50;99.90;;;;;;5090994;28;20154;-54
2022/07/04 09:17:17;;;;;;;6.13;2.35;;;18.50;99.90;;;;;;5089929;28;20048;-50
2022/07/04 09:19:42;;;;;;;8.45;3.00;;;18.70;99.90;;;;;;5088269;28;20039;-52
2022/07/04 09:22:11;;;;;;;4.88;1.98;;;18.80;99.90;;;;;;5090238;28;20048;-53
2022/07/04 09:24:49;;;;;;;8.85;2.08;;;19.00;99.90;;;;;;5073957;28;20431;-52
2022/07/04 09:27:39;;;;;;;6.32;1.92;;;19.10;99.90;;;;;;5078580;28;20037;-49
2022/07/04 09:30:06;;;;;;;5.65;2.10;;;19.30;99.90;;;;;;5078406;28;20040;-51
2022/07/04 09:32:36;;;;;;;7.63;1.90;;;19.40;99.90;;;;;;5075827;28;20097;-50
2022/07/04 09:35:08;;;;;;;12.50;2.22;;;19.60;99.90;;;;;;5076788;28;20036;-55
2022/07/04 09:37:36;;;;;;;6.72;1.83;;;19.70;99.90;;;;;;5070211;28;20040;-55
2022/07/04 09:40:07;;;;;;;6.15;1.40;;;19.70;99.90;;;;;;5075785;28;20167;-52
2022/07/04 09:42:40;;;;;;;6.82;1.27;;;19.70;99.90;;;;;;5074710;28;20044;-52
2022/07/04 09:45:09;;;;;;;5.10;1.20;;;19.70;99.90;;;;;;5075016;28;20127;-55
2022/07/04 09:47:36;;;;;;;8.35;1.67;;;19.60;99.90;;;;;;5073976;28;20268;-54
2022/07/04 09:50:14;;;;;;;6.68;1.33;;;19.50;99.90;;;;;;5076998;28;20044;-53
2022/07/04 09:52:53;;;;;;;5.07;0.73;;;19.60;99.90;;;;;;5072741;28;20052;-51
2022/07/04 09:55:33;;;;;;;7.28;1.17;;;19.70;99.90;;;;;;5074422;28;20073;-54
2022/07/04 09:58:01;;;;;;;2.22;0.50;;;19.80;99.90;;;;;;5073725;28;20036;-54
2022/07/04 10:00:32;;;;;;;5.47;1.08;;;20.00;99.90;;;;;;5072836;28;20980;-53
2022/07/04 10:03:21;;;;;;;3.00;0.50;;;20.10;99.90;;;;;;5073823;28;20550;-54
2022/07/04 10:06:08;;;;;;;5.47;0.65;;;20.30;99.90;;;;;;5075465;28;20040;-51
2022/07/04 10:08:34;;;;;;;1.48;0.40;;;20.40;99.90;;;;;;5070543;28;20108;-54
2022/07/04 10:11:01;;;;;;;2.72;0.57;;;20.60;99.90;;;;;;5075663;28;20050;-56
2022/07/04 10:13:27;;;;;;;2.78;0.50;;;20.60;99.90;;;;;;5073477;28;20032;-52
2022/07/04 10:15:53;;;;;;;1.80;0.60;;;20.60;99.90;;;;;;5076663;28;20036;-53
2022/07/04 10:18:21;;;;;;;4.60;0.90;;;20.70;99.90;;;;;;5069102;28;20127;-55
2022/07/04 10:20:48;;;;;;;4.00;0.40;;;20.70;99.90;;;;;;5070379;28;20040;-55
2022/07/04 10:23:15;;;;;;;5.43;0.75;;;20.80;99.90;;;;;;5071544;28;20044;-52
2022/07/04 10:25:41;;;;;;;3.67;0.50;;;21.00;99.90;;;;;;5070051;28;20114;-55
2022/07/04 10:28:08;;;;;;;1.52;0.63;;;21.10;99.90;;;;;;5069756;28;20036;-54
2022/07/04 10:30:37;;;;;;;2.75;0.50;;;21.20;99.90;;;;;;5072358;28;20033;-53
2022/07/04 10:33:05;;;;;;;2.83;0.40;;;21.20;99.90;;;;;;5070834;28;20060;-52
2022/07/04 10:35:54;;;;;;;3.42;0.40;;;21.20;99.60;;;;;;5075857;28;20067;-54
2022/07/04 10:38:22;;;;;;;2.33;0.30;;;21.20;98.60;;;;;;5071465;28;20036;-55
2022/07/04 10:41:22;;;;;;;2.53;0.57;;;21.20;99.30;;;;;;5070758;28;20105;-51
2022/07/04 10:43:48;;;;;;;1.63;0.63;;;21.20;99.10;;;;;;5061406;28;20179;-55
2022/07/04 10:46:14;;;;;;;;;;;21.30;99.90;;;;;;5071281;28;20280;-55
2022/07/04 10:48:50;;;;;;;3.47;0.50;;;21.40;99.00;;;;;;5071152;28;19920;-52
2022/07/04 10:51:50;;;;;;;1.67;0.30;;;21.40;99.30;;;;;;5072080;28;20513;-54
2022/07/04 10:54:20;;;;;;;5.15;0.38;;;21.50;99.30;;;;;;5070076;28;20154;-55
2022/07/04 10:56:52;;;;;;;2.45;0.63;;;21.50;98.50;;;;;;5072070;28;20090;-55
2022/07/04 10:59:27;;;;;;;4.72;0.65;;;21.50;98.50;;;;;;5072066;28;20036;-54
2022/07/04 11:02:13;;;;;;;3.85;0.30;;;21.40;97.80;;;;;;5074536;28;20510;-50
2022/07/04 11:05:01;;;;;;;3.13;0.40;;;21.30;97.70;;;;;;5070609;28;20137;-52
2022/07/04 11:07:35;;;;;;;3.15;0.50;;;21.20;98.20;;;;;;5069969;28;20505;-55
2022/07/04 11:10:13;;;;;;;1.77;0.50;;;21.20;99.00;;;;;;5071769;28;20064;-55
2022/07/04 11:13:00;;;;;;;1.75;0.38;;;21.20;98.40;;;;;;5072319;28;20050;-56
2022/07/04 11:15:31;;;;;;;1.75;0.40;;;21.20;98.40;;;;;;5071162;28;20037;-55
2022/07/04 11:18:14;;;;;;;3.33;0.40;;;21.30;98.90;;;;;;5072905;28;20047;-55
2022/07/04 11:20:49;;;;;;;0.80;0.40;;;21.40;98.40;;;;;;5075403;28;20032;-54
2022/07/04 11:23:19;;;;;;;2.72;0.30;;;21.40;97.90;;;;;;5075676;28;20477;-53
2022/07/04 11:25:46;;;;;;;2.67;0.40;;;21.50;98.70;;;;;;5075116;28;20036;-52
2022/07/04 11:28:26;;;;;;;4.43;0.45;;;21.60;98.90;;;;;;5073513;28;20544;-52
2022/07/04 11:30:56;;;;;;;3.35;1.27;;;21.70;97.60;;;;;;5076390;28;20440;-54
2022/07/04 11:33:26;;;;;;;1.50;0.30;;;21.80;97.20;;;;;;5073052;28;20131;-55
2022/07/04 11:36:18;;;;;;;3.40;0.65;;;21.90;97.80;;;;;;5076776;28;20128;-54
2022/07/04 11:38:58;;;;;;;4.63;0.77;;;21.90;97.70;;;;;;5075020;28;20404;-54
2022/07/04 11:47:12;;;;;;;4.03;0.40;;;22.00;97.40;;;;;;5072223;28;20497;-52
2022/07/04 11:49:49;;;;;;;1.88;0.30;;;22.00;97.30;;;;;;5070515;28;20119;-51
2022/07/04 11:52:16;;;;;;;3.42;0.35;;;21.90;97.30;;;;;;5072411;28;20551;-54
2022/07/04 11:54:43;;;;;;;1.48;0.50;;;21.80;97.10;;;;;;5077260;28;20428;-52
2022/07/04 11:57:15;;;;;;;1.60;0.50;;;21.80;97.60;;;;;;5070240;28;20536;-53
2022/07/04 11:59:41;;;;;;;2.90;0.70;;;21.90;97.50;;;;;;5069968;28;20034;-54
2022/07/04 12:02:12;;;;;;;3.75;0.70;;;22.00;97.60;;;;;;5073134;28;20452;-53
2022/07/04 12:04:38;;;;;;;4.90;1.05;;;22.10;96.70;;;;;;5074606;28;20051;-53
2022/07/04 12:07:15;;;;;;;0.90;0.35;;;22.00;96.80;;;;;;5070576;28;20052;-53
2022/07/04 12:09:42;;;;;;;2.13;0.30;;;22.00;96.10;;;;;;5074888;28;20079;-54
2022/07/04 12:12:08;;;;;;;1.27;0.52;;;22.00;96.40;;;;;;5074467;28;20097;-54
2022/07/04 12:14:34;;;;;;;1.88;0.30;;;21.90;96.50;;;;;;5073073;28;20033;-54
2022/07/04 12:17:15;;;;;;;;;;;21.90;96.90;;;;;;5069260;28;20038;-55
2022/07/04 12:20:14;;;;;;;1.40;0.22;;;21.90;96.30;;;;;;5066337;28;20005;-51
2022/07/04 12:22:42;;;;;;;6.57;0.50;;;22.00;95.80;;;;;;4999093;28;20066;-50
2022/07/04 12:25:31;;;;;;;1.33;0.30;;;22.00;95.70;;;;;;4995542;28;20033;-53
2022/07/04 12:27:58;;;;;;;0.55;0.30;;;22.10;96.10;;;;;;5010832;28;20042;-53
2022/07/04 12:30:28;;;;;;;0.85;0.43;;;22.10;96.40;;;;;;5011697;28;20128;-51
2022/07/04 12:33:17;;;;;;;1.67;0.30;;;22.20;95.90;;;;;;5011902;28;20122;-52
2022/07/04 12:35:44;;;;;;;2.17;0.30;;;22.30;96.00;;;;;;5014760;28;20037;-54
2022/07/04 12:38:37;;;;;;;1.65;0.30;;;22.30;96.40;;;;;;5012139;28;20046;-51
2022/07/04 12:41:03;;;;;;;2.00;0.20;;;22.40;96.30;;;;;;5011366;28;20093;-54
2022/07/04 12:43:41;;;;;;;0.90;0.40;;;22.50;96.10;;;;;;5009628;28;20045;-54
2022/07/04 12:46:08;;;;;;;1.08;0.30;;;22.50;96.20;;;;;;5015721;28;20056;-53
2022/07/04 12:48:34;;;;;;;1.95;0.30;;;22.50;95.70;;;;;;5015010;28;20461;-55
2022/07/04 12:51:12;;;;;;;;;;;22.60;95.80;;;;;;5013589;28;20104;-54
2022/07/04 12:53:42;;;;;;;2.05;0.28;;;22.60;95.20;;;;;;5015739;28;19917;-54
2022/07/04 12:56:09;;;;;;;3.95;0.30;;;22.70;95.40;;;;;;5014503;28;20038;-55
2022/07/04 12:58:35;;;;;;;2.13;0.30;;;22.60;95.60;;;;;;5035729;28;20502;-54
2022/07/04 13:01:01;;;;;;;;;;;22.70;95.90;;;;;;5080920;28;20042;-52
2022/07/04 13:03:28;;;;;;;0.63;0.30;;;22.80;96.10;;;;;;5073589;28;19916;-53
2022/07/04 13:05:57;;;;;;;1.75;0.20;;;22.90;96.00;;;;;;5079499;28;20515;-54
2022/07/04 13:08:23;;;;;;;0.95;0.35;;;22.90;95.10;;;;;;5074914;28;20044;-55
2022/07/04 13:12:23;;;;;;;;;;;22.80;94.30;;;;;;5071449;28;20044;-54
2022/07/04 13:13:34;;;;;;;10.05;0.95;;;22.70;94.20;;;;;;5070883;28;19920;-51
2022/07/04 13:16:00;;;;;;;;;;;22.70;94.70;;;;;;5072480;28;20089;-52
2022/07/04 13:18:25;;;;;;;1.10;0.30;;;22.60;95.00;;;;;;5078862;28;20418;-50
2022/07/04 13:20:51;;;;;;;;;;;22.60;95.00;;;;;;5073307;28;20072;-54
2022/07/04 13:23:16;;;;;;;1.30;0.50;;;22.60;94.10;;;;;;5071963;28;20650;-54
2022/07/04 13:25:42;;;;;;;1.95;0.30;;;22.60;94.50;;;;;;5075517;28;20039;-55
2022/07/04 13:28:07;;;;;;;;;;;22.50;94.10;;;;;;5075895;28;20043;-53
2022/07/04 13:30:33;;;;;;;1.55;0.20;;;22.60;95.00;;;;;;5077355;28;19969;-55
2022/07/04 13:32:58;;;;;;;2.63;0.45;;;22.50;94.80;;;;;;5075953;28;20382;-51
2022/07/04 13:35:24;;;;;;;;;;;22.60;94.60;;;;;;5075569;28;20048;-55
2022/07/04 13:37:50;;;;;;;1.55;0.30;;;22.60;93.80;;;;;;5075225;28;20331;-52
2022/07/04 13:40:16;;;;;;;2.00;0.20;;;22.50;93.70;;;;;;5073774;28;20430;-52
2022/07/04 13:42:56;;;;;;;;;;;22.40;94.40;;;;;;5076655;28;20042;-56
2022/07/04 13:45:22;;;;;;;3.63;0.40;;;22.40;93.80;;;;;;5069478;28;19921;-53
2022/07/04 13:47:48;;;;;;;;;;;22.40;93.30;;;;;;5071324;28;20039;-52
2022/07/04 13:50:13;;;;;;;1.75;0.20;;;22.30;92.80;;;;;;5077665;28;19919;-55
2022/07/04 13:52:39;;;;;;;;;;;22.30;93.70;;;;;;5073719;28;20041;-54
2022/07/04 13:55:05;;;;;;;3.03;0.20;;;22.30;93.50;;;;;;5074200;28;19978;-53
2022/07/04 13:57:31;;;;;;;2.97;0.30;;;22.40;94.40;;;;;;5074911;28;20028;-54
2022/07/04 13:59:56;;;;;;;;;;;22.40;94.20;;;;;;5073468;28;20574;-51
2022/07/04 14:02:22;;;;;;;1.15;0.20;;;22.50;93.30;;;;;;5077823;28;20112;-55
2022/07/04 14:04:47;;;;;;;4.50;0.20;;;22.50;93.90;;;;;;5075736;28;20414;-54
2022/07/04 14:07:13;;;;;;;0.50;0.10;;;22.60;93.30;;;;;;5070837;28;20040;-53